createdAt,value
2023-03-29T00:02:03.683Z,0.47
2023-03-29T00:04:31.392Z,0.43
2023-03-29T00:07:03.935Z,0.40
2023-03-29T00:09:33.397Z,1.23
2023-03-29T00:12:01.544Z,0.30
2023-03-29T00:14:30.804Z,0.40
2023-03-29T00:16:58.906Z,0.30
2023-03-29T00:19:29.057Z,0.30
2023-03-29T00:21:55.538Z,0.30
2023-03-29T00:24:23.829Z,0.30
2023-03-29T00:26:53.157Z,0.30
2023-03-29T00:29:19.608Z,0.50
2023-03-29T00:31:52.366Z,0.20
2023-03-29T00:34:20.840Z,0.28
2023-03-29T00:36:50.852Z,0.20
2023-03-29T00:39:18.252Z,0.20
2023-03-29T00:41:51.052Z,0.70
2023-03-29T00:44:52.699Z,0.47
2023-03-29T00:47:24.835Z,0.57
2023-03-29T00:49:52.802Z,0.50
2023-03-29T00:52:21.762Z,0.43
2023-03-29T00:54:53.005Z,0.50
2023-03-29T00:57:22.758Z,0.30
2023-03-29T00:59:51.855Z,0.30
2023-03-29T01:02:22.527Z,0.43
2023-03-29T01:04:56.024Z,0.50
2023-03-29T01:07:30.675Z,0.43
2023-03-29T01:10:16.186Z,0.28
2023-03-29T01:12:51.502Z,0.68
2023-03-29T01:15:21.892Z,0.30
2023-03-29T01:17:50.651Z,0.28
2023-03-29T01:20:21.406Z,0.52
2023-03-29T01:23:03.519Z,0.45
2023-03-29T01:25:41.334Z,0.20
2023-03-29T01:28:18.051Z,0.30
2023-03-29T01:33:33.867Z,0.47
2023-03-29T01:36:14.060Z,0.35
2023-03-29T01:38:57.172Z,0.22
2023-03-29T01:41:35.467Z,0.35
2023-03-29T01:44:30.876Z,0.77
2023-03-29T01:47:27.246Z,0.43
2023-03-29T01:50:02.458Z,0.30
2023-03-29T01:52:38.591Z,0.60
2023-03-29T01:55:17.200Z,0.63
2023-03-29T01:57:46.845Z,0.30
2023-03-29T02:00:22.329Z,0.30
2023-03-29T02:02:51.401Z,0.43
2023-03-29T02:05:20.781Z,0.30
2023-03-29T02:07:50.496Z,0.43
2023-03-29T02:10:18.362Z,0.40
2023-03-29T02:12:44.929Z,0.40
2023-03-29T02:15:14.720Z,0.22
2023-03-29T02:17:41.776Z,0.60
2023-03-29T02:20:17.465Z,0.98
2023-03-29T02:22:51.101Z,0.20
2023-03-29T02:25:18.656Z,0.35
2023-03-29T02:27:45.816Z,1.10
2023-03-29T02:30:13.672Z,0.47
2023-03-29T02:33:04.685Z,0.75
2023-03-29T02:35:34.993Z,0.50
2023-03-29T02:40:34.813Z,0.35
2023-03-29T02:43:03.396Z,0.47
2023-03-29T02:45:31.317Z,0.40
2023-03-29T02:48:07.457Z,0.70
2023-03-29T02:50:42.967Z,0.35
2023-03-29T02:53:19.796Z,0.40
2023-03-29T02:55:48.552Z,0.70
2023-03-29T02:58:15.645Z,0.30
2023-03-29T03:00:46.150Z,0.50
2023-03-29T03:05:43.495Z,0.57
2023-03-29T03:08:10.627Z,0.50
2023-03-29T03:10:38.930Z,0.43
2023-03-29T03:13:05.787Z,0.30
2023-03-29T03:15:35.644Z,0.35
2023-03-29T03:18:04.285Z,0.50
2023-03-29T03:20:31.902Z,0.70
2023-03-29T03:22:58.533Z,0.52
2023-03-29T03:25:25.387Z,1.00
2023-03-29T03:27:52.277Z,1.00
2023-03-29T03:30:21.789Z,0.50
2023-03-29T03:33:20.765Z,0.60
2023-03-29T03:35:47.935Z,1.00
2023-03-29T03:38:20.045Z,0.88
2023-03-29T03:40:55.135Z,0.60
2023-03-29T03:43:22.416Z,0.60
2023-03-29T03:45:50.017Z,0.50
2023-03-29T03:48:20.137Z,0.82
2023-03-29T03:50:58.181Z,0.55
2023-03-29T03:53:29.410Z,0.57
2023-03-29T03:56:13.964Z,0.65
2023-03-29T03:58:58.885Z,0.57
2023-03-29T04:01:28.130Z,0.43
2023-03-29T04:04:14.964Z,0.40
2023-03-29T04:06:52.772Z,0.98
2023-03-29T04:09:46.477Z,0.45
2023-03-29T04:12:41.585Z,0.50
2023-03-29T04:15:10.341Z,0.60
2023-03-29T04:17:38.764Z,0.85
2023-03-29T04:20:17.519Z,0.63
2023-03-29T04:22:46.957Z,0.75
2023-03-29T04:25:13.564Z,0.47
2023-03-29T04:27:58.180Z,0.68
2023-03-29T04:30:47.246Z,1.00
2023-03-29T04:33:19.043Z,0.40
2023-03-29T04:35:51.076Z,0.82
2023-03-29T04:38:22.932Z,0.35
2023-03-29T04:40:50.884Z,0.63
2023-03-29T04:43:23.842Z,0.43
2023-03-29T04:46:00.020Z,0.43
2023-03-29T04:48:45.106Z,0.50
2023-03-29T04:51:12.679Z,0.68
2023-03-29T04:53:39.945Z,0.70
2023-03-29T04:56:08.044Z,0.68
2023-03-29T04:58:54.849Z,0.52
2023-03-29T05:01:21.884Z,0.32
2023-03-29T05:03:56.726Z,0.55
2023-03-29T05:06:29.219Z,0.40
2023-03-29T05:08:55.703Z,0.35
2023-03-29T05:11:33.352Z,0.40
2023-03-29T05:14:03.154Z,0.52
2023-03-29T05:16:34.575Z,0.35
2023-03-29T05:19:01.705Z,1.10
2023-03-29T05:21:29.353Z,2.97
2023-03-29T05:23:58.632Z,5.97
2023-03-29T05:26:51.713Z,1.52
2023-03-29T05:29:18.609Z,1.35
2023-03-29T05:31:49.871Z,1.30
2023-03-29T05:34:17.009Z,2.40
2023-03-29T05:36:51.674Z,3.85
2023-03-29T05:39:18.913Z,2.47
2023-03-29T05:41:46.732Z,2.20
2023-03-29T05:44:42.399Z,1.30
2023-03-29T05:47:16.465Z,1.60
2023-03-29T05:49:43.187Z,1.20
2023-03-29T05:52:14.499Z,1.33
2023-03-29T05:54:42.157Z,0.45
2023-03-29T05:57:09.667Z,0.70
2023-03-29T05:59:36.957Z,0.60
2023-03-29T06:02:07.392Z,1.35
2023-03-29T06:04:38.468Z,1.08
2023-03-29T06:07:25.506Z,1.15
2023-03-29T06:10:17.970Z,1.08
2023-03-29T06:12:49.395Z,0.43
2023-03-29T06:15:17.684Z,0.98
2023-03-29T06:17:50.699Z,0.80
2023-03-29T06:20:18.442Z,0.80
2023-03-29T06:22:49.646Z,0.90
2023-03-29T06:25:17.466Z,0.90
2023-03-29T06:27:48.826Z,0.70
2023-03-29T06:30:17.642Z,1.13
2023-03-29T06:32:51.264Z,0.40
2023-03-29T06:35:27.918Z,1.05
2023-03-29T06:38:03.797Z,0.80
2023-03-29T06:41:01.510Z,0.70
2023-03-29T06:43:35.765Z,0.70
2023-03-29T06:46:12.330Z,1.15
2023-03-29T06:48:53.363Z,1.40
2023-03-29T06:51:23.309Z,2.65
2023-03-29T06:53:53.377Z,2.60
2023-03-29T06:56:20.657Z,4.50
2023-03-29T06:58:55.321Z,9.98
2023-03-29T07:01:52.536Z,5.53
2023-03-29T07:04:26.224Z,1.70
2023-03-29T07:07:19.963Z,1.13
2023-03-29T07:09:55.508Z,0.98
2023-03-29T07:12:40.925Z,1.45
2023-03-29T07:15:09.518Z,1.23
2023-03-29T07:17:55.909Z,1.38
2023-03-29T07:20:26.988Z,0.93
2023-03-29T07:23:04.667Z,1.85
2023-03-29T07:25:32.313Z,1.50
2023-03-29T07:27:58.936Z,1.00
2023-03-29T07:30:31.647Z,1.23
2023-03-29T07:33:10.662Z,1.27
2023-03-29T07:35:43.831Z,1.20
2023-03-29T07:38:10.755Z,1.70
2023-03-29T07:40:41.605Z,1.65
2023-03-29T07:43:27.056Z,1.45
2023-03-29T07:45:53.912Z,1.50
2023-03-29T07:48:22.193Z,1.67
2023-03-29T07:50:55.968Z,1.98
2023-03-29T07:53:29.552Z,1.67
2023-03-29T07:55:58.215Z,1.30
2023-03-29T07:58:44.498Z,1.42
2023-03-29T08:01:17.161Z,1.20
2023-03-29T08:04:04.807Z,1.63
2023-03-29T08:06:50.555Z,1.30
2023-03-29T08:09:18.206Z,2.90
2023-03-29T08:11:44.960Z,25.60
2023-03-29T08:14:24.053Z,7.20
2023-03-29T08:17:02.183Z,14.50
2023-03-29T08:19:30.627Z,31.15
2023-03-29T08:22:04.613Z,11.25
2023-03-29T08:25:07.437Z,3.22
2023-03-29T08:27:39.794Z,3.03
2023-03-29T08:30:09.497Z,2.15
2023-03-29T08:32:42.075Z,1.70
2023-03-29T08:35:09.765Z,2.72
2023-03-29T08:37:43.040Z,2.05
2023-03-29T08:40:21.918Z,1.88
2023-03-29T08:43:29.975Z,2.22
2023-03-29T08:46:47.965Z,1.98
2023-03-29T08:49:25.644Z,2.33
2023-03-29T08:51:57.950Z,2.45
2023-03-29T08:54:29.178Z,2.17
2023-03-29T08:57:31.088Z,2.58
2023-03-29T09:00:06.998Z,2.75
2023-03-29T09:02:40.070Z,2.25
2023-03-29T09:05:34.857Z,2.00
2023-03-29T09:08:16.989Z,3.05
2023-03-29T09:10:50.349Z,3.15
2023-03-29T09:13:42.308Z,2.67
2023-03-29T09:16:43.350Z,2.88
2023-03-29T09:19:32.098Z,2.40
2023-03-29T09:22:33.695Z,2.35
2023-03-29T09:25:06.264Z,2.55
2023-03-29T09:27:46.558Z,2.70
2023-03-29T09:30:39.275Z,2.85
2023-03-29T09:33:20.125Z,2.33
2023-03-29T09:36:11.760Z,3.05
2023-03-29T09:38:44.268Z,2.70
2023-03-29T09:42:11.790Z,2.20
2023-03-29T09:44:49.858Z,3.05
2023-03-29T09:47:26.338Z,2.53
2023-03-29T09:50:19.845Z,2.90
2023-03-29T09:52:56.448Z,2.65
2023-03-29T09:55:28.122Z,2.70
2023-03-29T09:58:34.315Z,2.80
2023-03-29T10:01:04.801Z,2.88
2023-03-29T10:03:34.881Z,3.15
2023-03-29T10:06:12.499Z,3.10
2023-03-29T10:08:52.480Z,3.15
2023-03-29T10:11:43.294Z,2.75
2023-03-29T10:14:17.022Z,3.22
2023-03-29T10:16:46.629Z,3.55
2023-03-29T10:19:22.900Z,3.17
2023-03-29T10:21:56.275Z,3.63
2023-03-29T10:24:25.443Z,3.38
2023-03-29T10:27:07.989Z,3.85
2023-03-29T10:34:46.965Z,3.63
2023-03-29T10:39:43.325Z,4.45
2023-03-29T10:42:14.961Z,3.78
2023-03-29T10:44:41.677Z,4.18
2023-03-29T10:47:16.443Z,4.68
2023-03-29T10:49:47.348Z,4.82
2023-03-29T10:52:19.642Z,4.47
2023-03-29T10:54:47.457Z,4.15
2023-03-29T10:57:22.205Z,4.43
2023-03-29T11:01:07.555Z,4.45
2023-03-29T11:03:53.592Z,4.20
2023-03-29T11:06:43.721Z,4.57
2023-03-29T11:09:42.987Z,4.57
2023-03-29T11:12:24.065Z,4.10
2023-03-29T11:15:25.404Z,4.88
2023-03-29T11:18:13.714Z,4.28
2023-03-29T11:21:13.797Z,5.07
2023-03-29T11:24:03.460Z,4.03
2023-03-29T11:26:36.049Z,3.97
2023-03-29T11:29:47.965Z,4.38
2023-03-29T11:32:29.122Z,4.78
2023-03-29T11:35:03.316Z,4.43
2023-03-29T11:37:53.872Z,4.47
2023-03-29T11:40:51.413Z,4.68
2023-03-29T11:43:27.813Z,4.55
2023-03-29T11:46:03.968Z,4.40
2023-03-29T11:48:37.181Z,4.78
2023-03-29T11:51:13.581Z,4.22
2023-03-29T11:53:58.982Z,3.78
2023-03-29T11:56:44.489Z,4.50
2023-03-29T11:59:22.245Z,3.58
2023-03-29T12:01:59.738Z,3.83
2023-03-29T12:04:41.901Z,4.63
2023-03-29T12:07:11.189Z,3.67
2023-03-29T12:10:00.371Z,5.38
2023-03-29T12:12:32.887Z,6.57
2023-03-29T12:15:21.542Z,6.00
2023-03-29T12:20:23.337Z,6.10
2023-03-29T12:22:51.748Z,5.53
2023-03-29T12:25:26.788Z,6.03
2023-03-29T12:28:18.077Z,5.00
2023-03-29T12:31:03.734Z,5.10
2023-03-29T12:33:57.231Z,6.10
2023-03-29T12:37:11.084Z,6.05
2023-03-29T12:39:46.902Z,6.50
2023-03-29T12:42:53.369Z,6.47
2023-03-29T12:45:48.340Z,6.53
2023-03-29T12:48:19.193Z,5.88
2023-03-29T12:50:56.860Z,6.15
2023-03-29T12:53:36.508Z,6.60
2023-03-29T12:56:03.808Z,7.05
2023-03-29T12:58:36.364Z,7.20
2023-03-29T13:01:22.133Z,6.53
2023-03-29T13:03:52.067Z,6.43
2023-03-29T13:06:30.656Z,7.10
2023-03-29T13:09:04.886Z,6.88
2023-03-29T13:11:40.658Z,6.88
2023-03-29T13:14:17.925Z,7.47
2023-03-29T13:16:44.460Z,7.68
2023-03-29T13:19:18.415Z,7.05
2023-03-29T13:22:10.825Z,7.55
2023-03-29T13:24:52.985Z,7.32
2023-03-29T13:27:39.652Z,7.47
2023-03-29T13:30:20.011Z,6.45
2023-03-29T13:33:19.991Z,6.80
2023-03-29T13:36:16.417Z,6.72
2023-03-29T13:38:51.634Z,5.68
2023-03-29T13:41:40.196Z,6.07
2023-03-29T13:44:21.814Z,6.28
2023-03-29T13:46:50.041Z,5.10
2023-03-29T13:49:26.228Z,6.35
2023-03-29T13:52:34.756Z,7.43
2023-03-29T13:55:25.080Z,7.28
2023-03-29T13:58:02.601Z,7.53
2023-03-29T14:00:41.884Z,7.00
2023-03-29T14:03:14.053Z,6.40
2023-03-29T14:05:47.542Z,7.25
2023-03-29T14:08:32.423Z,6.80
2023-03-29T14:11:02.494Z,6.03
2023-03-29T14:13:29.834Z,6.57
2023-03-29T14:16:03.034Z,6.50
2023-03-29T14:18:44.670Z,6.55
2023-03-29T14:21:16.807Z,6.63
2023-03-29T14:24:03.377Z,6.25
2023-03-29T14:26:34.647Z,6.00
2023-03-29T14:29:02.542Z,5.85
2023-03-29T14:31:35.523Z,5.88
2023-03-29T14:34:05.897Z,5.10
2023-03-29T14:36:33.736Z,6.20
2023-03-29T14:39:08.372Z,5.63
2023-03-29T14:41:38.002Z,5.65
2023-03-29T14:44:06.773Z,5.35
2023-03-29T14:46:34.789Z,5.25
2023-03-29T14:49:09.715Z,5.35
2023-03-29T14:52:06.240Z,4.95
2023-03-29T14:55:04.068Z,5.28
2023-03-29T14:57:39.877Z,5.32
2023-03-29T15:00:42.562Z,4.78
2023-03-29T15:04:10.983Z,4.60
2023-03-29T15:06:52.846Z,4.80
2023-03-29T15:09:24.842Z,4.30
2023-03-29T15:11:53.755Z,4.53
2023-03-29T15:14:21.668Z,4.55
2023-03-29T15:16:51.790Z,4.25
2023-03-29T15:19:25.455Z,3.88
2023-03-29T15:21:55.551Z,3.90
2023-03-29T15:24:34.364Z,4.40
2023-03-29T15:27:06.868Z,4.03
2023-03-29T15:29:37.050Z,4.05
2023-03-29T15:32:03.962Z,4.50
2023-03-29T15:34:32.760Z,3.08
2023-03-29T15:37:00.419Z,3.55
2023-03-29T15:39:29.445Z,3.55
2023-03-29T15:41:57.203Z,2.67
2023-03-29T15:44:29.337Z,2.97
2023-03-29T15:46:57.780Z,2.70
2023-03-29T15:49:26.823Z,2.78
2023-03-29T15:51:54.021Z,2.13
2023-03-29T15:54:21.881Z,2.72
2023-03-29T15:56:52.935Z,2.20
2023-03-29T15:59:29.884Z,2.33
2023-03-29T16:01:59.288Z,12.60
2023-03-29T16:04:36.260Z,19.63
2023-03-29T16:07:17.333Z,7.10
2023-03-29T16:09:45.816Z,3.10
2023-03-29T16:12:13.266Z,2.60
2023-03-29T16:17:09.938Z,1.98
2023-03-29T16:19:36.566Z,5.05
2023-03-29T16:22:07.081Z,3.33
2023-03-29T16:24:35.497Z,3.58
2023-03-29T16:27:03.112Z,2.63
2023-03-29T16:29:30.253Z,2.28
2023-03-29T16:32:05.493Z,2.25
2023-03-29T16:34:33.401Z,2.00
2023-03-29T16:37:25.035Z,1.75
2023-03-29T16:39:54.819Z,1.77
2023-03-29T16:42:22.819Z,1.15
2023-03-29T16:44:49.289Z,1.98
2023-03-29T16:47:18.359Z,1.83
2023-03-29T16:49:48.511Z,1.80
2023-03-29T16:54:42.462Z,3.00
2023-03-29T16:57:10.398Z,2.70
2023-03-29T16:59:36.960Z,1.70
2023-03-29T17:02:03.590Z,2.22
2023-03-29T17:04:30.103Z,1.42
2023-03-29T17:06:56.970Z,2.20
2023-03-29T17:09:23.498Z,4.00
2023-03-29T17:11:51.247Z,2.88
2023-03-29T17:14:18.066Z,2.05
2023-03-29T17:16:44.869Z,11.23
2023-03-29T17:19:11.525Z,5.35
2023-03-29T17:21:37.958Z,3.55
2023-03-29T17:24:04.742Z,2.88
2023-03-29T17:26:37.972Z,2.08
2023-03-29T17:29:06.346Z,2.90
2023-03-29T17:31:34.825Z,2.05
2023-03-29T17:34:01.610Z,1.92
2023-03-29T17:36:32.972Z,6.25
2023-03-29T17:39:02.445Z,2.42
2023-03-29T17:41:31.106Z,2.30
2023-03-29T17:43:58.173Z,2.15
2023-03-29T17:46:34.541Z,1.20
2023-03-29T17:49:03.212Z,2.25
2023-03-29T17:51:32.071Z,1.83
2023-03-29T17:53:59.601Z,1.67
2023-03-29T17:56:26.615Z,1.65
2023-03-29T17:58:53.374Z,2.35
2023-03-29T18:01:20.351Z,1.63
2023-03-29T18:03:48.168Z,1.58
2023-03-29T18:06:18.029Z,2.17
2023-03-29T18:08:44.640Z,1.67
2023-03-29T18:11:15.998Z,1.70
2023-03-29T18:13:49.399Z,1.70
2023-03-29T18:16:16.289Z,1.50
2023-03-29T18:18:43.686Z,1.60
2023-03-29T18:21:10.847Z,2.00
2023-03-29T18:23:42.227Z,2.17
2023-03-29T18:26:09.460Z,1.92
2023-03-29T18:28:37.458Z,2.38
2023-03-29T18:31:05.399Z,3.05
2023-03-29T18:33:35.347Z,2.95
2023-03-29T18:36:10.849Z,2.70
2023-03-29T18:38:40.434Z,3.53
2023-03-29T18:41:08.541Z,2.25
2023-03-29T18:43:35.941Z,2.78
2023-03-29T18:46:03.402Z,2.50
2023-03-29T18:48:31.100Z,2.58
2023-03-29T18:50:57.768Z,2.40
2023-03-29T18:53:24.639Z,2.78
2023-03-29T18:55:52.572Z,2.28
2023-03-29T18:58:22.714Z,2.17
2023-03-29T19:00:49.984Z,2.70
2023-03-29T19:03:16.838Z,1.85
2023-03-29T19:05:43.485Z,1.80
2023-03-29T19:08:10.042Z,2.45
2023-03-29T19:10:39.053Z,1.98
2023-03-29T19:13:06.512Z,1.80
2023-03-29T19:15:34.711Z,2.13
2023-03-29T19:18:01.719Z,2.00
2023-03-29T19:20:29.916Z,1.58
2023-03-29T19:22:57.649Z,1.73
2023-03-29T19:25:24.175Z,1.70
2023-03-29T19:27:52.320Z,2.88
2023-03-29T19:30:20.220Z,2.22
2023-03-29T19:32:46.899Z,2.13
2023-03-29T19:35:14.405Z,2.00
2023-03-29T19:37:41.036Z,1.98
2023-03-29T19:40:10.954Z,1.90
2023-03-29T19:42:38.324Z,2.28
2023-03-29T19:45:07.395Z,1.90
2023-03-29T19:47:34.503Z,1.50
2023-03-29T19:50:02.167Z,1.75
2023-03-29T19:52:30.300Z,2.80
2023-03-29T19:54:58.813Z,1.85
2023-03-29T19:57:25.538Z,1.80
2023-03-29T19:59:53.942Z,1.60
2023-03-29T20:02:20.491Z,1.80
2023-03-29T20:04:47.496Z,1.73
2023-03-29T20:07:14.060Z,1.73
2023-03-29T20:09:44.628Z,1.58
2023-03-29T20:12:11.806Z,1.70
2023-03-29T20:14:40.110Z,1.48
2023-03-29T20:17:07.227Z,1.33
2023-03-29T20:19:36.590Z,2.15
2023-03-29T20:22:07.367Z,1.73
2023-03-29T20:24:34.896Z,1.55
2023-03-29T20:27:01.644Z,2.13
2023-03-29T20:29:28.174Z,1.65
2023-03-29T20:31:54.730Z,1.88
2023-03-29T20:34:21.798Z,1.85
2023-03-29T20:36:48.355Z,2.20
2023-03-29T20:39:18.158Z,1.83
2023-03-29T20:41:47.420Z,1.83
2023-03-29T20:44:16.666Z,2.13
2023-03-29T20:46:54.300Z,2.10
2023-03-29T20:49:26.299Z,1.92
2023-03-29T20:51:58.260Z,2.35
2023-03-29T20:54:25.833Z,1.88
2023-03-29T20:56:54.646Z,1.75
2023-03-29T20:59:22.868Z,1.67
2023-03-29T21:01:50.333Z,1.63
2023-03-29T21:04:17.666Z,1.63
2023-03-29T21:06:45.656Z,1.50
2023-03-29T21:09:13.611Z,1.58
2023-03-29T21:11:40.314Z,1.88
2023-03-29T21:14:09.185Z,1.52
2023-03-29T21:16:35.863Z,1.60
2023-03-29T21:19:03.715Z,1.08
2023-03-29T21:21:30.253Z,1.35
2023-03-29T21:23:56.776Z,1.65
2023-03-29T21:26:23.489Z,2.53
2023-03-29T21:28:50.796Z,1.92
2023-03-29T21:31:17.590Z,1.33
2023-03-29T21:33:44.498Z,1.92
2023-03-29T21:36:11.164Z,2.20
2023-03-29T21:38:37.676Z,1.45
2023-03-29T21:41:04.986Z,1.40
2023-03-29T21:43:31.631Z,1.40
2023-03-29T21:45:58.150Z,1.50
2023-03-29T21:48:24.830Z,1.50
2023-03-29T21:50:52.380Z,1.88
2023-03-29T21:53:18.957Z,1.60
2023-03-29T21:55:48.868Z,1.63
2023-03-29T21:58:15.934Z,1.70
2023-03-29T22:00:42.488Z,1.45
2023-03-29T22:03:09.030Z,1.80
2023-03-29T22:05:35.578Z,1.40
2023-03-29T22:08:04.012Z,1.65
2023-03-29T22:10:32.924Z,1.98
2023-03-29T22:13:00.228Z,1.83
2023-03-29T22:15:29.395Z,1.58
2023-03-29T22:17:57.871Z,2.00
2023-03-29T22:20:26.185Z,1.60
2023-03-29T22:22:53.778Z,1.63
2023-03-29T22:25:20.732Z,1.80
2023-03-29T22:27:48.721Z,1.35
2023-03-29T22:30:17.149Z,2.22
2023-03-29T22:32:43.728Z,1.50
2023-03-29T22:35:10.576Z,2.15
2023-03-29T22:37:43.983Z,2.38
2023-03-29T22:40:12.015Z,1.17
2023-03-29T22:42:38.825Z,1.60
2023-03-29T22:45:06.516Z,1.08
2023-03-29T22:47:33.114Z,1.52
2023-03-29T22:50:01.977Z,1.02
2023-03-29T22:52:28.596Z,1.13
2023-03-29T22:54:55.073Z,0.82
2023-03-29T22:57:21.607Z,1.60
2023-03-29T22:59:48.069Z,1.27
2023-03-29T23:02:14.590Z,1.05
2023-03-29T23:04:42.242Z,1.48
2023-03-29T23:07:09.073Z,1.10
2023-03-29T23:09:35.579Z,1.38
2023-03-29T23:12:02.128Z,1.15
2023-03-29T23:14:28.636Z,1.08
2023-03-29T23:16:55.108Z,0.98
2023-03-29T23:19:21.552Z,1.38
2023-03-29T23:21:47.990Z,1.38
2023-03-29T23:24:18.873Z,1.25
2023-03-29T23:26:45.901Z,1.00
2023-03-29T23:29:13.610Z,0.73
2023-03-29T23:31:40.118Z,0.93
2023-03-29T23:34:06.602Z,1.33
2023-03-29T23:36:33.145Z,0.70
2023-03-29T23:38:59.810Z,0.90
2023-03-29T23:41:28.233Z,0.68
2023-03-29T23:43:55.226Z,0.60
2023-03-29T23:46:21.757Z,0.75
2023-03-29T23:48:51.071Z,1.13
2023-03-29T23:51:18.818Z,0.77
2023-03-29T23:53:47.272Z,0.68
2023-03-29T23:56:13.784Z,0.90
2023-03-29T23:58:40.254Z,0.90
